Time;durP1;ratioP1;P1;durP2;ratioP2;P2;SDS_P1;SDS_P2;PMS_P1;PMS_P2;Temp;Humidity;BMP_temperature;BMP_pressure;BME280_temperature;BME280_humidity;BME280_pressure;Samples;Min_cycle;Max_cycle;Signal;HPM_P1;HPM_P2
2021/01/22 00:00:35;;;;;;;141.57;66.02;;;;;;;;;;1740046;82;21163;-85
2021/01/22 00:03:03;;;;;;;140.45;67.10;;;;;;;;;;1740226;82;21592;-84
2021/01/22 00:05:30;;;;;;;146.50;68.17;;;;;;;;;;1740098;82;21200;-86
2021/01/22 00:07:56;;;;;;;151.07;72.12;;;;;;;;;;1740317;82;21172;-85
2021/01/22 00:10:22;;;;;;;127.60;60.40;;;;;;;;;;1740365;82;21157;-85
2021/01/22 00:12:48;;;;;;;105.92;51.65;;;;;;;;;;1740116;82;21152;-84
2021/01/22 00:15:15;;;;;;;120.02;61.18;;;;;;;;;;1740361;81;21156;-85
2021/01/22 00:17:45;;;;;;;130.37;59.65;;;;;;;;;;1740038;82;21141;-86
2021/01/22 00:20:11;;;;;;;128.02;57.98;;;;;;;;;;1740172;82;21156;-85
2021/01/22 00:22:38;;;;;;;104.35;52.73;;;;;;;;;;1740006;82;21294;-87
2021/01/22 00:25:05;;;;;;;101.05;51.05;;;;;;;;;;1739975;82;21141;-85
2021/01/22 00:27:31;;;;;;;112.42;56.30;;;;;;;;;;1739918;82;21184;-85
2021/01/22 00:29:57;;;;;;;120.70;58.87;;;;;;;;;;1740064;82;21160;-84
2021/01/22 00:32:23;;;;;;;128.12;62.25;;;;;;;;;;1740076;82;21156;-86
2021/01/22 00:34:49;;;;;;;142.45;66.00;;;;;;;;;;1739989;82;21168;-84
2021/01/22 00:37:15;;;;;;;134.03;60.60;;;;;;;;;;1740187;82;21556;-87
2021/01/22 00:39:42;;;;;;;129.93;62.35;;;;;;;;;;1740335;82;21172;-85
2021/01/22 00:42:08;;;;;;;137.82;66.10;;;;;;;;;;1740001;82;21603;-85
2021/01/22 00:44:34;;;;;;;134.37;64.00;;;;;;;;;;1740146;82;21172;-84
2021/01/22 00:47:00;;;;;;;141.77;68.85;;;;;;;;;;1740091;82;21210;-86
2021/01/22 00:49:27;;;;;;;141.82;68.40;;;;;;;;;;1739884;82;21148;-85
2021/01/22 00:51:53;;;;;;;138.32;69.47;;;;;;;;;;1740160;82;21209;-83
2021/01/22 00:54:19;;;;;;;136.15;65.87;;;;;;;;;;1740107;82;21181;-85
2021/01/22 00:56:45;;;;;;;142.50;66.30;;;;;;;;;;1739953;82;21132;-85
2021/01/22 00:59:12;;;;;;;149.38;68.05;;;;;;;;;;1739867;82;21220;-84
2021/01/22 01:01:38;;;;;;;143.57;66.57;;;;;;;;;;1739975;82;21155;-84
2021/01/22 01:04:04;;;;;;;142.53;69.75;;;;;;;;;;1740050;82;21140;-86
2021/01/22 01:06:31;;;;;;;135.00;66.95;;;;;;;;;;1740118;82;21140;-85
2021/01/22 01:08:57;;;;;;;134.12;66.95;;;;;;;;;;1740047;82;21298;-85
2021/01/22 01:11:24;;;;;;;128.87;65.17;;;;;;;;;;1740172;82;21294;-86
2021/01/22 01:13:50;;;;;;;129.07;63.68;;;;;;;;;;1740342;82;21286;-84
2021/01/22 01:16:17;;;;;;;114.00;56.53;;;;;;;;;;1745436;82;21163;-85
2021/01/22 01:18:43;;;;;;;126.72;61.28;;;;;;;;;;1754033;82;21285;-85
2021/01/22 01:21:09;;;;;;;134.32;62.73;;;;;;;;;;1753861;82;21187;-85
2021/01/22 01:23:44;;;;;;;120.30;61.33;;;;;;;;;;1754316;82;21175;-85
2021/01/22 01:26:11;;;;;;;131.45;61.37;;;;;;;;;;1753813;82;21163;-85
2021/01/22 01:28:37;;;;;;;134.18;62.53;;;;;;;;;;1754185;82;21152;-86
2021/01/22 01:31:03;;;;;;;132.70;61.92;;;;;;;;;;1754019;82;21154;-86
2021/01/22 01:33:29;;;;;;;117.65;61.33;;;;;;;;;;1754214;82;21742;-85
2021/01/22 01:35:55;;;;;;;138.70;60.15;;;;;;;;;;1753868;82;21136;-84
2021/01/22 01:38:21;;;;;;;137.32;63.90;;;;;;;;;;1754020;82;21576;-84
2021/01/22 01:40:48;;;;;;;137.30;63.30;;;;;;;;;;1754135;82;21156;-84
2021/01/22 01:43:15;;;;;;;136.12;63.60;;;;;;;;;;1754271;82;21148;-84
2021/01/22 01:45:41;;;;;;;131.47;61.45;;;;;;;;;;1754165;82;21156;-84
2021/01/22 01:48:09;;;;;;;138.50;65.92;;;;;;;;;;1753942;82;21182;-84
2021/01/22 01:50:35;;;;;;;139.00;63.70;;;;;;;;;;1754060;82;21223;-84
2021/01/22 01:53:02;;;;;;;147.22;65.90;;;;;;;;;;1754392;82;21297;-85
2021/01/22 01:55:28;;;;;;;131.45;60.80;;;;;;;;;;1753952;82;21128;-85
2021/01/22 01:57:54;;;;;;;120.00;55.67;;;;;;;;;;1754105;82;21180;-85
2021/01/22 02:00:21;;;;;;;127.05;57.62;;;;;;;;;;1754108;82;21182;-84
2021/01/22 02:02:47;;;;;;;115.95;55.48;;;;;;;;;;1754046;82;21167;-85
2021/01/22 02:05:13;;;;;;;126.25;59.58;;;;;;;;;;1754285;82;21159;-85
2021/01/22 02:07:40;;;;;;;128.30;58.05;;;;;;;;;;1754126;82;21579;-85
2021/01/22 02:10:06;;;;;;;122.47;55.12;;;;;;;;;;1754234;82;21191;-85
2021/01/22 02:12:32;;;;;;;117.67;55.70;;;;;;;;;;1754162;82;21155;-85
2021/01/22 02:14:59;;;;;;;116.62;53.75;;;;;;;;;;1754122;82;21144;-84
2021/01/22 02:17:29;;;;;;;107.78;50.73;;;;;;;;;;1743581;82;21604;-84
2021/01/22 02:20:00;;;;;;;105.37;50.75;;;;;;;;;;1740098;82;21283;-85
2021/01/22 02:22:27;;;;;;;115.60;51.95;;;;;;;;;;1739805;82;21323;-85
2021/01/22 02:24:53;;;;;;;109.52;52.75;;;;;;;;;;1740503;82;21156;-85
2021/01/22 02:27:19;;;;;;;112.65;53.17;;;;;;;;;;1740135;82;21314;-85
2021/01/22 02:29:45;;;;;;;108.40;49.80;;;;;;;;;;1740237;82;21305;-85
2021/01/22 02:32:11;;;;;;;105.35;47.23;;;;;;;;;;1740064;82;21156;-84
2021/01/22 02:34:39;;;;;;;102.25;48.92;;;;;;;;;;1739934;82;21642;-84
2021/01/22 02:37:06;;;;;;;93.95;45.58;;;;;;;;;;1739886;82;21230;-85
2021/01/22 02:39:34;;;;;;;89.47;43.33;;;;;;;;;;1739894;82;21125;-85
2021/01/22 02:42:00;;;;;;;83.47;41.15;;;;;;;;;;1739868;82;21615;-84
2021/01/22 02:44:26;;;;;;;98.05;46.02;;;;;;;;;;1740242;82;21156;-84
2021/01/22 02:46:52;;;;;;;89.90;44.15;;;;;;;;;;1740342;82;21200;-86
2021/01/22 02:49:19;;;;;;;84.60;40.80;;;;;;;;;;1740149;82;21165;-86
2021/01/22 02:51:45;;;;;;;96.97;43.50;;;;;;;;;;1740139;82;21180;-85
2021/01/22 02:54:12;;;;;;;78.05;37.60;;;;;;;;;;1740228;82;21156;-85
2021/01/22 02:56:49;;;;;;;80.28;40.95;;;;;;;;;;1740086;82;21243;-85
2021/01/22 02:59:23;;;;;;;79.45;39.60;;;;;;;;;;1740194;82;21148;-86
2021/01/22 03:02:00;;;;;;;76.22;37.78;;;;;;;;;;1739358;82;21140;-84
2021/01/22 03:04:27;;;;;;;83.22;41.48;;;;;;;;;;1740178;82;21160;-85
2021/01/22 03:06:53;;;;;;;89.58;42.83;;;;;;;;;;1740265;82;21310;-85
2021/01/22 03:09:20;;;;;;;91.42;41.08;;;;;;;;;;1739992;82;21829;-85
2021/01/22 03:11:48;;;;;;;83.10;41.95;;;;;;;;;;1740194;82;21266;-86
2021/01/22 03:14:15;;;;;;;91.85;41.70;;;;;;;;;;1740065;82;21180;-85
2021/01/22 03:16:41;;;;;;;90.32;42.55;;;;;;;;;;1744557;81;21147;-85
2021/01/22 03:19:08;;;;;;;92.12;43.13;;;;;;;;;;1726457;82;21144;-85
2021/01/22 03:21:34;;;;;;;96.92;41.88;;;;;;;;;;1753937;82;21563;-85
2021/01/22 03:24:00;;;;;;;88.22;40.20;;;;;;;;;;1754254;82;21159;-86
2021/01/22 03:26:26;;;;;;;82.47;39.27;;;;;;;;;;1753922;82;21607;-85
2021/01/22 03:28:53;;;;;;;85.28;40.55;;;;;;;;;;1754026;82;21148;-84
2021/01/22 03:31:19;;;;;;;83.85;41.53;;;;;;;;;;1754138;82;21172;-84
2021/01/22 03:33:45;;;;;;;86.17;38.28;;;;;;;;;;1754233;82;21231;-84
2021/01/22 03:36:12;;;;;;;82.85;36.03;;;;;;;;;;1754151;82;21171;-84
2021/01/22 03:38:38;;;;;;;79.50;36.80;;;;;;;;;;1754099;82;21587;-84
2021/01/22 03:41:04;;;;;;;71.90;35.43;;;;;;;;;;1754160;82;21619;-86
2021/01/22 03:43:31;;;;;;;89.20;41.40;;;;;;;;;;1754212;82;21160;-85
2021/01/22 03:45:57;;;;;;;84.50;40.15;;;;;;;;;;1754001;82;21586;-85
2021/01/22 03:48:23;;;;;;;81.15;38.55;;;;;;;;;;1754492;82;21151;-85
2021/01/22 03:50:49;;;;;;;84.45;40.05;;;;;;;;;;1754167;82;21191;-85
2021/01/22 03:53:15;;;;;;;86.00;41.88;;;;;;;;;;1754289;82;21159;-85
2021/01/22 03:55:42;;;;;;;91.47;41.90;;;;;;;;;;1754324;82;21156;-86
2021/01/22 03:58:10;;;;;;;85.77;41.05;;;;;;;;;;1754491;82;21147;-85
2021/01/22 04:00:36;;;;;;;66.50;34.33;;;;;;;;;;1754295;81;21107;-84
2021/01/22 04:03:03;;;;;;;71.37;36.63;;;;;;;;;;1754429;82;21135;-85
2021/01/22 04:05:29;;;;;;;68.90;33.85;;;;;;;;;;1754154;82;21143;-85
2021/01/22 04:07:55;;;;;;;70.75;34.25;;;;;;;;;;1754245;82;21135;-85
2021/01/22 04:10:21;;;;;;;76.72;36.77;;;;;;;;;;1754229;82;21182;-84
2021/01/22 04:12:48;;;;;;;80.92;37.58;;;;;;;;;;1754113;81;21142;-87
2021/01/22 04:15:14;;;;;;;84.03;39.48;;;;;;;;;;1754169;81;21130;-85
2021/01/22 04:17:40;;;;;;;82.82;39.08;;;;;;;;;;1735202;82;21635;-85
2021/01/22 04:20:07;;;;;;;75.97;34.48;;;;;;;;;;1724738;83;21144;-85
2021/01/22 04:22:33;;;;;;;74.40;36.17;;;;;;;;;;1724941;83;21179;-86
2021/01/22 04:24:59;;;;;;;74.85;33.50;;;;;;;;;;1725324;83;21572;-85
2021/01/22 04:27:26;;;;;;;71.30;36.42;;;;;;;;;;1725272;83;21651;-84
2021/01/22 04:29:54;;;;;;;62.20;30.88;;;;;;;;;;1725071;83;21576;-83
2021/01/22 04:32:20;;;;;;;72.08;33.18;;;;;;;;;;1724819;83;21164;-85
2021/01/22 04:34:46;;;;;;;70.00;32.13;;;;;;;;;;1724740;83;21160;-85
2021/01/22 04:37:12;;;;;;;67.05;33.75;;;;;;;;;;1724733;83;21414;-85
2021/01/22 04:39:40;;;;;;;65.78;29.90;;;;;;;;;;1724629;83;21598;-84
2021/01/22 04:42:06;;;;;;;62.90;31.82;;;;;;;;;;1724758;83;21587;-86
2021/01/22 04:44:34;;;;;;;52.48;26.45;;;;;;;;;;1724696;83;21204;-85
2021/01/22 04:47:00;;;;;;;61.05;29.85;;;;;;;;;;1724670;83;21217;-85
2021/01/22 04:49:27;;;;;;;48.83;25.40;;;;;;;;;;1724902;83;21172;-86
2021/01/22 04:51:53;;;;;;;61.77;27.90;;;;;;;;;;1725004;82;21188;-84
2021/01/22 04:54:30;;;;;;;59.58;28.83;;;;;;;;;;1724912;82;21152;-85
2021/01/22 04:56:57;;;;;;;47.80;24.23;;;;;;;;;;1724486;81;21148;-85
2021/01/22 04:59:25;;;;;;;41.25;20.65;;;;;;;;;;1724720;83;21172;-85
2021/01/22 05:01:51;;;;;;;37.95;22.07;;;;;;;;;;1720949;81;21163;-85
2021/01/22 05:04:18;;;;;;;45.40;22.95;;;;;;;;;;1724867;83;21180;-85
2021/01/22 05:06:46;;;;;;;56.23;26.40;;;;;;;;;;1724591;83;21199;-85
2021/01/22 05:09:12;;;;;;;47.60;24.35;;;;;;;;;;1724858;83;21183;-85
2021/01/22 05:11:39;;;;;;;54.63;25.82;;;;;;;;;;1724841;83;21201;-85
2021/01/22 05:14:05;;;;;;;56.85;26.52;;;;;;;;;;1724547;83;21199;-84
2021/01/22 05:16:32;;;;;;;60.23;29.63;;;;;;;;;;1726653;81;21183;-86
2021/01/22 05:19:00;;;;;;;43.63;21.40;;;;;;;;;;1762437;81;21185;-83
2021/01/22 05:21:26;;;;;;;55.35;24.37;;;;;;;;;;1761971;81;21174;-85
2021/01/22 05:23:52;;;;;;;61.75;28.62;;;;;;;;;;1734619;81;21119;-86
2021/01/22 05:26:20;;;;;;;57.60;29.18;;;;;;;;;;1761846;81;21115;-85
2021/01/22 05:28:47;;;;;;;58.20;28.80;;;;;;;;;;1762011;81;21606;-85
2021/01/22 05:31:14;;;;;;;59.50;30.02;;;;;;;;;;1762246;81;21154;-84
2021/01/22 05:33:41;;;;;;;67.20;32.35;;;;;;;;;;1762138;81;21138;-85
2021/01/22 05:36:09;;;;;;;61.75;30.65;;;;;;;;;;1762446;81;21296;-85
2021/01/22 05:38:39;;;;;;;72.42;33.85;;;;;;;;;;1758026;80;21156;-86
2021/01/22 05:41:05;;;;;;;67.50;30.55;;;;;;;;;;1762563;81;21597;-85
2021/01/22 05:43:36;;;;;;;69.55;32.55;;;;;;;;;;1762478;81;21138;-84
2021/01/22 05:46:02;;;;;;;57.45;28.65;;;;;;;;;;1762352;81;21154;-86
2021/01/22 05:48:29;;;;;;;67.08;31.07;;;;;;;;;;1762254;81;21276;-85
2021/01/22 05:50:57;;;;;;;57.17;28.38;;;;;;;;;;1762244;81;21284;-85
2021/01/22 05:53:24;;;;;;;55.60;29.07;;;;;;;;;;1762436;81;21634;-86
2021/01/22 05:56:09;;;;;;;61.98;29.72;;;;;;;;;;1762542;81;21154;-85
2021/01/22 05:58:36;;;;;;;61.70;29.18;;;;;;;;;;1762142;81;21139;-85
2021/01/22 06:01:03;;;;;;;62.13;29.20;;;;;;;;;;1762238;81;21131;-84
2021/01/22 06:03:30;;;;;;;58.78;29.27;;;;;;;;;;1762403;81;21312;-85
2021/01/22 06:05:56;;;;;;;62.43;28.95;;;;;;;;;;1762434;81;21472;-84
2021/01/22 06:08:22;;;;;;;57.65;29.42;;;;;;;;;;1762643;81;21142;-85
2021/01/22 06:10:49;;;;;;;58.23;28.73;;;;;;;;;;1762665;81;21126;-86
2021/01/22 06:13:15;;;;;;;57.27;28.02;;;;;;;;;;1762530;81;21135;-86
2021/01/22 06:15:42;;;;;;;55.00;25.52;;;;;;;;;;1762668;81;21127;-85
2021/01/22 06:18:18;;;;;;;48.92;25.75;;;;;;;;;;1738671;81;21192;-85
2021/01/22 06:20:40;;;;;;;60.67;29.05;;;;;;;;;;1724258;82;21199;-85
2021/01/22 06:23:14;;;;;;;52.17;25.25;;;;;;;;;;1723766;81;21175;-86
2021/01/22 06:25:46;;;;;;;57.23;26.50;;;;;;;;;;1725322;82;21167;-85
2021/01/22 06:28:11;;;;;;;55.30;25.85;;;;;;;;;;1724901;83;21180;-85
2021/01/22 06:30:38;;;;;;;79.62;28.55;;;;;;;;;;1725344;83;21257;-85
2021/01/22 06:33:05;;;;;;;51.23;26.42;;;;;;;;;;1725291;82;21605;-86
2021/01/22 06:35:32;;;;;;;52.67;25.50;;;;;;;;;;1725322;83;21638;-84
2021/01/22 06:38:00;;;;;;;49.38;23.62;;;;;;;;;;1725512;83;21199;-86
2021/01/22 06:40:35;;;;;;;50.90;25.50;;;;;;;;;;1709328;83;21579;-86
2021/01/22 06:43:03;;;;;;;49.38;23.02;;;;;;;;;;1722770;81;21176;-84
2021/01/22 06:45:27;;;;;;;58.52;24.63;;;;;;;;;;1724909;80;21151;-84
2021/01/22 06:47:57;;;;;;;55.20;26.20;;;;;;;;;;1725375;83;21556;-84
2021/01/22 06:50:24;;;;;;;54.77;26.05;;;;;;;;;;1725010;83;21183;-86
2021/01/22 06:53:06;;;;;;;53.78;26.70;;;;;;;;;;1725068;82;21175;-84
2021/01/22 06:55:32;;;;;;;49.58;24.63;;;;;;;;;;1725101;82;21132;-85
2021/01/22 06:58:17;;;;;;;74.30;33.83;;;;;;;;;;1725475;83;21199;-85
2021/01/22 07:00:43;;;;;;;78.20;37.30;;;;;;;;;;1725094;83;21175;-85
2021/01/22 07:03:11;;;;;;;59.58;30.02;;;;;;;;;;1725107;83;21301;-85
2021/01/22 07:05:38;;;;;;;65.37;30.32;;;;;;;;;;1721720;83;21171;-85
2021/01/22 07:08:05;;;;;;;67.72;31.57;;;;;;;;;;1725098;82;21584;-85
2021/01/22 07:10:50;;;;;;;59.65;30.68;;;;;;;;;;1702612;82;21207;-84
2021/01/22 07:13:32;;;;;;;57.93;28.70;;;;;;;;;;1725333;83;21151;-86
2021/01/22 07:16:02;;;;;;;60.83;29.18;;;;;;;;;;1724548;83;21175;-88
2021/01/22 07:18:29;;;;;;;64.07;30.88;;;;;;;;;;1713425;82;21154;-86
2021/01/22 07:21:13;;;;;;;54.03;29.48;;;;;;;;;;1748349;82;21134;-85
2021/01/22 07:23:41;;;;;;;60.38;29.48;;;;;;;;;;1748348;82;21138;-85
2021/01/22 07:26:09;;;;;;;55.67;29.77;;;;;;;;;;1748059;82;21139;-86
2021/01/22 07:28:35;;;;;;;55.70;29.82;;;;;;;;;;1718912;82;21134;-84
2021/01/22 07:31:01;;;;;;;60.05;29.52;;;;;;;;;;1719037;82;21166;-85
2021/01/22 07:33:29;;;;;;;83.50;33.30;;;;;;;;;;1748045;82;21575;-85
2021/01/22 07:36:09;;;;;;;65.17;28.75;;;;;;;;;;1748184;82;21135;-85
2021/01/22 07:38:36;;;;;;;92.75;37.78;;;;;;;;;;1748183;82;21155;-85
2021/01/22 07:41:02;;;;;;;55.95;30.05;;;;;;;;;;1748204;82;21160;-84
2021/01/22 07:43:29;;;;;;;62.58;28.17;;;;;;;;;;1748130;82;21563;-85
2021/01/22 07:46:11;;;;;;;54.18;27.77;;;;;;;;;;1748263;82;21603;-85
2021/01/22 07:48:37;;;;;;;54.20;26.60;;;;;;;;;;1748007;82;21586;-85
2021/01/22 07:51:22;;;;;;;59.00;29.77;;;;;;;;;;1748009;82;21605;-84
2021/01/22 07:54:03;;;;;;;51.83;27.22;;;;;;;;;;1748087;82;21143;-85
2021/01/22 07:56:37;;;;;;;61.70;30.95;;;;;;;;;;1719879;82;21133;-85
2021/01/22 07:59:04;;;;;;;55.03;29.10;;;;;;;;;;1748213;82;21186;-85
2021/01/22 08:01:32;;;;;;;55.17;29.48;;;;;;;;;;1748192;82;21155;-86
2021/01/22 08:04:06;;;;;;;58.30;29.60;;;;;;;;;;1748277;82;21163;-86
2021/01/22 08:09:25;;;;;;;55.23;29.67;;;;;;;;;;1640223;85;21710;-85
2021/01/22 08:11:53;;;;;;;50.23;26.52;;;;;;;;;;1693980;82;21559;-85
2021/01/22 08:14:29;;;;;;;50.48;25.97;;;;;;;;;;1747752;81;21123;-86
2021/01/22 08:16:55;;;;;;;50.63;28.30;;;;;;;;;;1747995;82;21400;-85
2021/01/22 08:19:25;;;;;;;43.17;24.02;;;;;;;;;;1726667;82;21160;-84
2021/01/22 08:22:02;;;;;;;46.92;24.32;;;;;;;;;;1724520;82;21195;-85
2021/01/22 08:24:31;;;;;;;42.55;24.27;;;;;;;;;;1724709;83;21183;-84
2021/01/22 08:27:03;;;;;;;34.85;19.02;;;;;;;;;;1724563;83;21167;-86
2021/01/22 08:29:33;;;;;;;34.67;18.77;;;;;;;;;;1641433;85;21198;-83
2021/01/22 08:32:15;;;;;;;18.70;10.85;;;;;;;;;;1641947;87;21190;-85
2021/01/22 08:37:31;;;;;;;24.23;13.83;;;;;;;;;;1601231;89;21192;-85
2021/01/22 08:40:19;;;;;;;31.40;17.23;;;;;;;;;;1628527;88;21189;-86
2021/01/22 08:46:42;;;;;;;37.63;18.48;;;;;;;;;;1817674;78;28362;-83
2021/01/22 08:49:30;;;;;;;38.53;19.92;;;;;;;;;;1785885;79;21404;-84
2021/01/22 08:51:58;;;;;;;29.70;17.05;;;;;;;;;;1786824;80;21179;-86
2021/01/22 08:54:46;;;;;;;30.65;15.98;;;;;;;;;;1776352;79;21143;-86
2021/01/22 08:57:26;;;;;;;;;;;;;;;;;;;;;
2021/01/22 08:59:48;;;;;;;34.00;17.90;;;;;;;;;;1784730;79;21158;-85
2021/01/22 09:02:17;;;;;;;22.22;12.55;;;;;;;;;;1787308;80;21162;-85
2021/01/22 09:05:03;;;;;;;31.37;17.23;;;;;;;;;;1786680;80;21176;-86
2021/01/22 09:08:05;;;;;;;27.93;17.20;;;;;;;;;;1711743;80;21246;-86
2021/01/22 09:10:34;;;;;;;28.45;16.45;;;;;;;;;;1754340;82;21160;-85
2021/01/22 09:19:40;;;;;;;23.62;13.72;;;;;;;;;;1750697;79;21293;-87
2021/01/22 09:25:22;;;;;;;;;;;;;;;;;;;;;
2021/01/22 09:28:20;;;;;;;32.53;18.00;;;;;;;;;;1664600;86;21227;-85
2021/01/22 09:31:26;;;;;;;34.53;23.75;;;;;;;;;;1806929;79;28371;-85
2021/01/22 09:48:35;;;;;;;23.87;15.43;;;;;;;;;;1886927;74;23045;-84
2021/01/22 09:51:02;;;;;;;19.52;12.30;;;;;;;;;;1892646;75;21193;-85
2021/01/22 09:53:28;;;;;;;31.05;17.45;;;;;;;;;;1889862;75;21574;-84
2021/01/22 09:55:54;;;;;;;28.07;18.02;;;;;;;;;;1890106;75;21174;-85
2021/01/22 09:58:21;;;;;;;25.60;17.27;;;;;;;;;;1882625;75;21129;-85
2021/01/22 10:00:47;;;;;;;27.05;19.75;;;;;;;;;;1878929;76;21593;-85
2021/01/22 10:03:13;;;;;;;29.30;19.95;;;;;;;;;;1879853;76;21563;-86
2021/01/22 10:05:41;;;;;;;29.85;19.27;;;;;;;;;;1874733;76;21145;-85
2021/01/22 10:08:08;;;;;;;29.40;20.82;;;;;;;;;;1873923;76;21585;-85
2021/01/22 10:10:34;;;;;;;28.83;21.75;;;;;;;;;;1874197;76;21180;-85
2021/01/22 10:13:01;;;;;;;27.13;19.92;;;;;;;;;;1870617;76;21146;-84
2021/01/22 10:15:30;;;;;;;32.35;20.62;;;;;;;;;;1871854;75;21185;-84
2021/01/22 10:17:55;;;;;;;24.63;19.32;;;;;;;;;;1871877;76;21165;-85
2021/01/22 10:20:23;;;;;;;30.27;21.57;;;;;;;;;;1873654;76;21165;-85
2021/01/22 10:22:50;;;;;;;31.40;23.07;;;;;;;;;;1871541;76;21150;-84
2021/01/22 10:25:17;;;;;;;33.02;24.15;;;;;;;;;;1868127;77;21154;-85
2021/01/22 10:27:43;;;;;;;28.42;20.02;;;;;;;;;;1872551;76;21276;-85
2021/01/22 10:30:10;;;;;;;29.60;21.33;;;;;;;;;;1873023;76;21200;-84
2021/01/22 10:32:36;;;;;;;30.37;22.13;;;;;;;;;;1871579;76;21106;-86
2021/01/22 10:35:03;;;;;;;30.50;23.12;;;;;;;;;;1871574;75;21174;-85
2021/01/22 10:37:31;;;;;;;28.87;22.37;;;;;;;;;;1870656;75;21184;-85
2021/01/22 10:39:57;;;;;;;30.20;23.20;;;;;;;;;;1874058;76;21157;-85
2021/01/22 10:42:27;;;;;;;29.60;23.70;;;;;;;;;;1873158;76;21197;-84
2021/01/22 10:44:53;;;;;;;30.15;23.98;;;;;;;;;;1873088;76;21234;-84
2021/01/22 10:47:19;;;;;;;29.23;22.93;;;;;;;;;;1873862;76;21159;-85
2021/01/22 10:49:45;;;;;;;31.17;24.90;;;;;;;;;;1873766;76;21186;-84
2021/01/22 10:52:11;;;;;;;31.80;25.08;;;;;;;;;;1867940;76;21157;-84
2021/01/22 10:54:38;;;;;;;29.48;24.12;;;;;;;;;;1871586;75;21165;-84
2021/01/22 10:57:07;;;;;;;29.57;24.72;;;;;;;;;;1870070;76;21169;-85
2021/01/22 10:59:33;;;;;;;29.18;23.18;;;;;;;;;;1872532;76;21545;-85
2021/01/22 11:01:59;;;;;;;27.75;23.90;;;;;;;;;;1873300;76;21142;-85
2021/01/22 11:04:27;;;;;;;27.80;23.73;;;;;;;;;;1868928;76;21570;-84
2021/01/22 11:06:53;;;;;;;32.85;25.60;;;;;;;;;;1871212;76;21708;-84
2021/01/22 11:09:19;;;;;;;31.02;26.68;;;;;;;;;;1872300;76;21146;-84
2021/01/22 11:11:46;;;;;;;30.62;25.17;;;;;;;;;;1867953;76;21166;-84
2021/01/22 11:14:17;;;;;;;29.55;25.17;;;;;;;;;;1836533;76;21177;-84
2021/01/22 11:16:45;;;;;;;28.70;23.95;;;;;;;;;;1871234;76;21134;-84
2021/01/22 11:19:11;;;;;;;29.75;25.62;;;;;;;;;;1871464;76;21550;-83
2021/01/22 11:21:39;;;;;;;28.40;24.55;;;;;;;;;;1867498;76;21598;-83
2021/01/22 11:24:07;;;;;;;28.30;24.67;;;;;;;;;;1887679;75;21166;-84
2021/01/22 11:26:34;;;;;;;28.62;24.85;;;;;;;;;;1839530;77;21139;-84
2021/01/22 11:29:03;;;;;;;29.15;24.95;;;;;;;;;;1855020;77;21166;-84
2021/01/22 11:31:29;;;;;;;29.10;24.02;;;;;;;;;;1835773;78;21218;-84
2021/01/22 11:33:55;;;;;;;28.80;24.23;;;;;;;;;;1868507;75;21106;-84
2021/01/22 11:36:25;;;;;;;29.55;22.75;;;;;;;;;;1853603;76;21594;-84
2021/01/22 11:38:51;;;;;;;28.57;23.10;;;;;;;;;;1861632;77;21590;-84
2021/01/22 11:41:18;;;;;;;26.77;23.60;;;;;;;;;;1845151;77;21137;-84
2021/01/22 11:43:44;;;;;;;23.18;19.73;;;;;;;;;;1851961;77;21146;-83
2021/01/22 11:46:11;;;;;;;27.05;21.12;;;;;;;;;;1861348;77;21122;-84
2021/01/22 11:48:40;;;;;;;26.45;20.25;;;;;;;;;;1850958;77;21305;-86
2021/01/22 11:51:06;;;;;;;25.02;18.90;;;;;;;;;;1856230;77;21136;-84
2021/01/22 11:53:36;;;;;;;24.98;18.60;;;;;;;;;;1850986;76;21138;-85
2021/01/22 11:56:19;;;;;;;24.95;17.95;;;;;;;;;;1823924;77;21774;-86
2021/01/22 11:58:57;;;;;;;27.60;19.10;;;;;;;;;;1854747;77;21136;-85
2021/01/22 12:01:22;;;;;;;25.52;19.60;;;;;;;;;;1854826;77;21133;-84
2021/01/22 12:03:52;;;;;;;23.80;16.55;;;;;;;;;;1847253;77;21118;-86
2021/01/22 12:06:18;;;;;;;25.62;17.98;;;;;;;;;;1860608;77;21131;-86
2021/01/22 12:08:45;;;;;;;25.48;18.00;;;;;;;;;;1861377;77;21708;-85
2021/01/22 12:11:11;;;;;;;24.75;18.80;;;;;;;;;;1856621;77;21196;-87
2021/01/22 12:13:39;;;;;;;24.87;17.02;;;;;;;;;;1855840;77;21272;-85
2021/01/22 12:16:05;;;;;;;28.65;17.67;;;;;;;;;;1850871;77;21142;-86
2021/01/22 12:18:34;;;;;;;30.17;18.52;;;;;;;;;;1850426;77;21215;-85
2021/01/22 12:21:02;;;;;;;23.85;16.70;;;;;;;;;;1855000;77;21749;-84
2021/01/22 12:23:29;;;;;;;27.35;17.62;;;;;;;;;;1856399;77;21162;-85
2021/01/22 12:25:55;;;;;;;27.85;16.77;;;;;;;;;;1861752;77;21659;-85
2021/01/22 12:28:21;;;;;;;23.42;15.80;;;;;;;;;;1850986;77;21173;-85
2021/01/22 12:30:48;;;;;;;28.62;18.23;;;;;;;;;;1855002;77;21123;-87
2021/01/22 12:33:14;;;;;;;26.93;18.25;;;;;;;;;;1850273;77;21162;-88
2021/01/22 12:35:40;;;;;;;28.00;17.82;;;;;;;;;;1861571;77;21138;-86
2021/01/22 12:38:07;;;;;;;27.35;17.25;;;;;;;;;;1845929;77;21626;-86
2021/01/22 12:40:33;;;;;;;26.93;17.05;;;;;;;;;;1861418;77;21180;-85
2021/01/22 12:42:59;;;;;;;29.05;18.45;;;;;;;;;;1855266;77;21189;-85
2021/01/22 12:45:26;;;;;;;27.30;18.15;;;;;;;;;;1850735;77;21153;-85
2021/01/22 12:47:52;;;;;;;28.42;18.37;;;;;;;;;;1856336;77;21138;-86
2021/01/22 12:50:18;;;;;;;26.87;17.70;;;;;;;;;;1861554;77;21161;-85
2021/01/22 12:52:44;;;;;;;30.30;19.35;;;;;;;;;;1854978;77;21147;-84
2021/01/22 12:55:11;;;;;;;33.10;19.30;;;;;;;;;;1856040;77;21692;-85
2021/01/22 12:57:38;;;;;;;30.52;19.15;;;;;;;;;;1861240;77;21317;-86
2021/01/22 13:00:07;;;;;;;28.75;19.25;;;;;;;;;;1857789;77;21617;-86
2021/01/22 13:02:34;;;;;;;29.48;17.95;;;;;;;;;;1860356;76;21186;-86
2021/01/22 13:05:00;;;;;;;29.85;18.87;;;;;;;;;;1852747;77;21563;-86
2021/01/22 13:07:26;;;;;;;29.55;18.23;;;;;;;;;;1842483;77;21126;-84
2021/01/22 13:09:54;;;;;;;32.23;18.80;;;;;;;;;;1853149;77;21181;-85
2021/01/22 13:12:30;;;;;;;34.10;19.80;;;;;;;;;;1854156;77;21170;-86
2021/01/22 13:14:59;;;;;;;34.53;19.75;;;;;;;;;;1861699;77;21465;-86
2021/01/22 13:17:26;;;;;;;35.05;21.68;;;;;;;;;;1861337;77;21150;-84
2021/01/22 13:19:52;;;;;;;31.05;19.17;;;;;;;;;;1856406;77;21141;-85
2021/01/22 13:22:19;;;;;;;30.52;18.23;;;;;;;;;;1847060;77;21265;-85
2021/01/22 13:24:47;;;;;;;32.60;19.32;;;;;;;;;;1859728;77;21308;-84
2021/01/22 13:27:13;;;;;;;33.00;20.48;;;;;;;;;;1867757;76;21134;-85
2021/01/22 13:29:39;;;;;;;32.58;20.60;;;;;;;;;;1854557;77;21154;-85
2021/01/22 13:32:06;;;;;;;36.73;21.50;;;;;;;;;;1835848;77;21179;-84
2021/01/22 13:34:35;;;;;;;37.25;21.55;;;;;;;;;;1824470;78;21158;-86
2021/01/22 13:37:01;;;;;;;39.60;21.77;;;;;;;;;;1823463;78;21551;-86
2021/01/22 13:39:28;;;;;;;38.75;22.77;;;;;;;;;;1820132;78;21145;-85
2021/01/22 13:41:54;;;;;;;40.90;23.52;;;;;;;;;;1841937;78;21154;-87
2021/01/22 13:44:21;;;;;;;38.73;22.95;;;;;;;;;;1816857;78;21142;-86
2021/01/22 13:46:49;;;;;;;35.55;22.25;;;;;;;;;;1820895;78;21320;-86
2021/01/22 13:49:15;;;;;;;36.77;22.22;;;;;;;;;;1822960;79;21147;-86
2021/01/22 13:51:42;;;;;;;36.25;20.90;;;;;;;;;;1824657;78;21154;-86
2021/01/22 13:54:08;;;;;;;34.13;21.33;;;;;;;;;;1821787;78;21579;-86
2021/01/22 13:56:34;;;;;;;39.73;23.45;;;;;;;;;;1851641;77;21159;-86
2021/01/22 13:59:04;;;;;;;35.35;22.35;;;;;;;;;;1808224;78;21878;-87
2021/01/22 14:01:31;;;;;;;37.17;21.87;;;;;;;;;;1834292;77;21559;-86
2021/01/22 14:03:57;;;;;;;39.73;22.17;;;;;;;;;;1835413;77;21126;-87
2021/01/22 14:06:25;;;;;;;34.53;21.82;;;;;;;;;;1835678;78;21147;-86
2021/01/22 14:08:52;;;;;;;38.00;21.93;;;;;;;;;;1838234;78;21130;-86
2021/01/22 14:11:19;;;;;;;40.40;24.52;;;;;;;;;;1836419;78;21157;-86
2021/01/22 14:13:45;;;;;;;44.55;24.98;;;;;;;;;;1836639;78;21155;-86
2021/01/22 14:16:12;;;;;;;44.53;24.45;;;;;;;;;;1831062;78;21705;-85
2021/01/22 14:18:38;;;;;;;43.20;23.52;;;;;;;;;;1835731;78;21209;-87
2021/01/22 14:21:05;;;;;;;43.40;24.57;;;;;;;;;;1834310;78;21150;-86
2021/01/22 14:23:32;;;;;;;38.75;23.87;;;;;;;;;;1837575;78;21554;-86
2021/01/22 14:26:02;;;;;;;44.18;24.05;;;;;;;;;;1835493;77;21546;-86
2021/01/22 14:28:31;;;;;;;41.10;23.55;;;;;;;;;;1837754;77;21216;-87
2021/01/22 14:30:57;;;;;;;36.03;22.93;;;;;;;;;;1831967;78;21709;-86
2021/01/22 14:33:26;;;;;;;40.17;22.77;;;;;;;;;;1835107;78;21165;-86
2021/01/22 14:35:52;;;;;;;38.48;21.85;;;;;;;;;;1838256;78;21296;-86
2021/01/22 14:38:21;;;;;;;36.77;21.73;;;;;;;;;;1836252;78;21166;-86
2021/01/22 14:40:47;;;;;;;37.55;23.02;;;;;;;;;;1836954;78;21138;-86
2021/01/22 14:43:14;;;;;;;38.30;22.90;;;;;;;;;;1835789;77;21166;-86
2021/01/22 14:45:40;;;;;;;38.85;22.55;;;;;;;;;;1831280;78;21206;-84
2021/01/22 14:48:06;;;;;;;38.38;23.40;;;;;;;;;;1836508;78;21276;-85
2021/01/22 14:50:36;;;;;;;40.63;23.40;;;;;;;;;;1833444;78;21154;-86
2021/01/22 14:53:06;;;;;;;40.25;23.90;;;;;;;;;;1837351;78;21185;-86
2021/01/22 14:55:37;;;;;;;47.55;23.47;;;;;;;;;;1832380;78;21166;-86